Cassadaga, New York
Current Conditions -  °F | °C
As of 7:53 PM on Tuesday 21 Oct 2014 (Local Time) from KDKK Reporting Station
Overcast Overcast  
Wind Chill: 44°   Ceiling: 800
Heat Index: 49°   Visibility: 10mi
Dew Point: 46°   Wind: 14mph
Humidity: 90%   Direction: 30°NNE
Pressure: 30.01"   Gusts: NA
Location:  42.34°N, 79.31°W
Report Text: KDKK 212353Z AUTO 03012KT 10SM OVC008 09/08 A3001 RMK AO2 SLP163 60004 T00940078 10122 20094 51027
Loading
Personal Weather Stations






























Interactive Weather Map
Tropical Storm Tracking
New forecast layout! Learn more

10-Day Weather Forecast

Advertisements
Track Severe Weather on mobile